sensor_id;sensor_type;location;lat;lon;timestamp;P1;durP1;ratioP1;P2;durP2;ratioP2
52964;SDS011;42923;53.220;6.528;2023-03-01T00:01:47;26.63;;;16.23;;
52964;SDS011;42923;53.220;6.528;2023-03-01T00:04:13;27.70;;;14.52;;
52964;SDS011;42923;53.220;6.528;2023-03-01T00:06:39;21.27;;;14.40;;
52964;SDS011;42923;53.220;6.528;2023-03-01T00:09:07;29.15;;;16.80;;
52964;SDS011;42923;53.220;6.528;2023-03-01T00:11:32;24.88;;;15.00;;
52964;SDS011;42923;53.220;6.528;2023-03-01T00:13:59;21.98;;;14.38;;
52964;SDS011;42923;53.220;6.528;2023-03-01T00:16:29;25.15;;;15.60;;
52964;SDS011;42923;53.220;6.528;2023-03-01T00:18:56;24.63;;;15.13;;
52964;SDS011;42923;53.220;6.528;2023-03-01T00:21:23;19.73;;;14.13;;
52964;SDS011;42923;53.220;6.528;2023-03-01T00:23:49;20.98;;;14.05;;
52964;SDS011;42923;53.220;6.528;2023-03-01T00:26:16;25.30;;;16.17;;
52964;SDS011;42923;53.220;6.528;2023-03-01T00:28:43;22.52;;;14.82;;
52964;SDS011;42923;53.220;6.528;2023-03-01T00:31:13;25.45;;;14.77;;
52964;SDS011;42923;53.220;6.528;2023-03-01T00:33:41;26.85;;;14.18;;
52964;SDS011;42923;53.220;6.528;2023-03-01T00:36:07;24.23;;;16.15;;
52964;SDS011;42923;53.220;6.528;2023-03-01T00:38:38;23.67;;;14.57;;
52964;SDS011;42923;53.220;6.528;2023-03-01T00:41:05;22.23;;;14.38;;
52964;SDS011;42923;53.220;6.528;2023-03-01T00:43:32;24.85;;;14.90;;
52964;SDS011;42923;53.220;6.528;2023-03-01T00:46:02;26.77;;;17.08;;
52964;SDS011;42923;53.220;6.528;2023-03-01T00:48:34;24.88;;;17.23;;
52964;SDS011;42923;53.220;6.528;2023-03-01T00:53:32;23.98;;;16.20;;
52964;SDS011;42923;53.220;6.528;2023-03-01T00:56:02;25.58;;;16.10;;
52964;SDS011;42923;53.220;6.528;2023-03-01T00:58:29;23.10;;;14.18;;
52964;SDS011;42923;53.220;6.528;2023-03-01T01:00:55;22.95;;;14.75;;
52964;SDS011;42923;53.220;6.528;2023-03-01T01:03:21;20.67;;;13.60;;
52964;SDS011;42923;53.220;6.528;2023-03-01T01:05:47;26.98;;;16.45;;
52964;SDS011;42923;53.220;6.528;2023-03-01T01:08:12;24.27;;;15.05;;
52964;SDS011;42923;53.220;6.528;2023-03-01T01:10:38;23.63;;;16.65;;
52964;SDS011;42923;53.220;6.528;2023-03-01T01:13:04;26.75;;;14.23;;
52964;SDS011;42923;53.220;6.528;2023-03-01T01:15:33;24.73;;;16.98;;
52964;SDS011;42923;53.220;6.528;2023-03-01T01:18:00;20.92;;;14.63;;
52964;SDS011;42923;53.220;6.528;2023-03-01T01:20:26;23.27;;;14.88;;
52964;SDS011;42923;53.220;6.528;2023-03-01T01:22:52;26.15;;;15.20;;
52964;SDS011;42923;53.220;6.528;2023-03-01T01:25:18;24.25;;;14.02;;
52964;SDS011;42923;53.220;6.528;2023-03-01T01:27:44;21.73;;;14.75;;
52964;SDS011;42923;53.220;6.528;2023-03-01T01:30:10;18.40;;;13.43;;
52964;SDS011;42923;53.220;6.528;2023-03-01T01:32:36;18.88;;;12.75;;
52964;SDS011;42923;53.220;6.528;2023-03-01T01:35:02;21.25;;;12.85;;
52964;SDS011;42923;53.220;6.528;2023-03-01T01:37:28;18.27;;;13.48;;
52964;SDS011;42923;53.220;6.528;2023-03-01T01:39:59;22.65;;;14.57;;
52964;SDS011;42923;53.220;6.528;2023-03-01T01:42:26;18.38;;;13.52;;
52964;SDS011;42923;53.220;6.528;2023-03-01T01:47:52;45.22;;;15.35;;
52964;SDS011;42923;53.220;6.528;2023-03-01T01:50:20;34.88;;;15.00;;
52964;SDS011;42923;53.220;6.528;2023-03-01T01:52:47;61.50;;;16.02;;
52964;SDS011;42923;53.220;6.528;2023-03-01T01:55:16;23.45;;;14.38;;
52964;SDS011;42923;53.220;6.528;2023-03-01T01:57:47;22.67;;;14.88;;
52964;SDS011;42923;53.220;6.528;2023-03-01T02:00:17;20.75;;;14.02;;
52964;SDS011;42923;53.220;6.528;2023-03-01T02:02:47;22.27;;;13.20;;
52964;SDS011;42923;53.220;6.528;2023-03-01T02:08:08;16.50;;;13.00;;
52964;SDS011;42923;53.220;6.528;2023-03-01T02:10:37;19.67;;;12.48;;
52964;SDS011;42923;53.220;6.528;2023-03-01T02:13:04;18.10;;;12.68;;
52964;SDS011;42923;53.220;6.528;2023-03-01T02:15:33;21.45;;;12.07;;
52964;SDS011;42923;53.220;6.528;2023-03-01T02:18:01;22.42;;;13.50;;
52964;SDS011;42923;53.220;6.528;2023-03-01T02:20:36;18.95;;;13.10;;
52964;SDS011;42923;53.220;6.528;2023-03-01T02:23:22;22.80;;;13.30;;
52964;SDS011;42923;53.220;6.528;2023-03-01T02:25:52;19.80;;;12.68;;
52964;SDS011;42923;53.220;6.528;2023-03-01T02:30:51;26.10;;;13.32;;
52964;SDS011;42923;53.220;6.528;2023-03-01T02:33:41;20.33;;;12.65;;
52964;SDS011;42923;53.220;6.528;2023-03-01T02:36:10;21.13;;;13.52;;
52964;SDS011;42923;53.220;6.528;2023-03-01T02:38:42;18.23;;;13.15;;
52964;SDS011;42923;53.220;6.528;2023-03-01T02:41:10;26.75;;;13.15;;
52964;SDS011;42923;53.220;6.528;2023-03-01T02:43:39;20.00;;;12.82;;
52964;SDS011;42923;53.220;6.528;2023-03-01T02:46:07;19.65;;;13.00;;
52964;SDS011;42923;53.220;6.528;2023-03-01T02:48:40;21.48;;;13.18;;
52964;SDS011;42923;53.220;6.528;2023-03-01T02:51:11;20.13;;;12.80;;
52964;SDS011;42923;53.220;6.528;2023-03-01T02:56:41;19.17;;;13.68;;
52964;SDS011;42923;53.220;6.528;2023-03-01T02:59:09;17.00;;;12.50;;
52964;SDS011;42923;53.220;6.528;2023-03-01T03:01:36;19.08;;;13.00;;
52964;SDS011;42923;53.220;6.528;2023-03-01T03:04:08;15.27;;;11.43;;
52964;SDS011;42923;53.220;6.528;2023-03-01T03:06:44;19.42;;;12.48;;
52964;SDS011;42923;53.220;6.528;2023-03-01T03:09:10;19.02;;;12.48;;
52964;SDS011;42923;53.220;6.528;2023-03-01T03:11:37;17.67;;;12.32;;
52964;SDS011;42923;53.220;6.528;2023-03-01T03:14:04;19.23;;;12.32;;
52964;SDS011;42923;53.220;6.528;2023-03-01T03:16:31;23.25;;;14.18;;
52964;SDS011;42923;53.220;6.528;2023-03-01T03:18:59;20.77;;;13.38;;
52964;SDS011;42923;53.220;6.528;2023-03-01T03:21:31;19.85;;;12.93;;
52964;SDS011;42923;53.220;6.528;2023-03-01T03:23:58;26.08;;;14.05;;
52964;SDS011;42923;53.220;6.528;2023-03-01T03:26:23;20.65;;;13.73;;
52964;SDS011;42923;53.220;6.528;2023-03-01T03:28:49;18.55;;;12.73;;
52964;SDS011;42923;53.220;6.528;2023-03-01T03:31:15;18.85;;;13.30;;
52964;SDS011;42923;53.220;6.528;2023-03-01T03:33:41;20.08;;;12.88;;
52964;SDS011;42923;53.220;6.528;2023-03-01T03:36:07;23.30;;;14.75;;
52964;SDS011;42923;53.220;6.528;2023-03-01T03:38:38;24.60;;;14.95;;
52964;SDS011;42923;53.220;6.528;2023-03-01T03:41:06;42.00;;;16.50;;
52964;SDS011;42923;53.220;6.528;2023-03-01T03:43:34;29.67;;;16.63;;
52964;SDS011;42923;53.220;6.528;2023-03-01T03:46:01;34.97;;;18.35;;
52964;SDS011;42923;53.220;6.528;2023-03-01T03:48:32;36.15;;;18.42;;
52964;SDS011;42923;53.220;6.528;2023-03-01T03:50:59;28.95;;;16.55;;
52964;SDS011;42923;53.220;6.528;2023-03-01T03:53:25;26.30;;;16.00;;
52964;SDS011;42923;53.220;6.528;2023-03-01T03:55:52;30.05;;;16.38;;
52964;SDS011;42923;53.220;6.528;2023-03-01T03:58:19;31.73;;;17.38;;
52964;SDS011;42923;53.220;6.528;2023-03-01T04:00:47;25.27;;;15.25;;
52964;SDS011;42923;53.220;6.528;2023-03-01T04:03:15;25.08;;;16.58;;
52964;SDS011;42923;53.220;6.528;2023-03-01T04:05:42;27.27;;;16.02;;
52964;SDS011;42923;53.220;6.528;2023-03-01T04:08:08;22.67;;;14.32;;
52964;SDS011;42923;53.220;6.528;2023-03-01T04:10:38;22.45;;;13.27;;
52964;SDS011;42923;53.220;6.528;2023-03-01T04:13:06;14.80;;;10.30;;
52964;SDS011;42923;53.220;6.528;2023-03-01T04:15:34;17.52;;;12.55;;
52964;SDS011;42923;53.220;6.528;2023-03-01T04:18:00;20.63;;;12.13;;
52964;SDS011;42923;53.220;6.528;2023-03-01T04:20:28;18.65;;;12.02;;
52964;SDS011;42923;53.220;6.528;2023-03-01T04:23:03;15.13;;;11.05;;
52964;SDS011;42923;53.220;6.528;2023-03-01T04:25:39;16.85;;;11.30;;
52964;SDS011;42923;53.220;6.528;2023-03-01T04:28:06;17.33;;;10.40;;
52964;SDS011;42923;53.220;6.528;2023-03-01T04:30:33;15.73;;;10.02;;
52964;SDS011;42923;53.220;6.528;2023-03-01T04:33:01;15.50;;;10.70;;
52964;SDS011;42923;53.220;6.528;2023-03-01T04:35:28;12.18;;;8.80;;
52964;SDS011;42923;53.220;6.528;2023-03-01T04:37:55;14.02;;;10.10;;
52964;SDS011;42923;53.220;6.528;2023-03-01T04:40:21;20.90;;;8.57;;
52964;SDS011;42923;53.220;6.528;2023-03-01T04:42:47;29.50;;;10.73;;
52964;SDS011;42923;53.220;6.528;2023-03-01T04:45:13;14.35;;;9.82;;
52964;SDS011;42923;53.220;6.528;2023-03-01T04:47:42;12.15;;;9.82;;
52964;SDS011;42923;53.220;6.528;2023-03-01T04:50:09;12.80;;;9.35;;
52964;SDS011;42923;53.220;6.528;2023-03-01T04:52:37;14.05;;;10.23;;
52964;SDS011;42923;53.220;6.528;2023-03-01T04:55:03;13.68;;;9.65;;
52964;SDS011;42923;53.220;6.528;2023-03-01T04:57:29;13.77;;;10.45;;
52964;SDS011;42923;53.220;6.528;2023-03-01T04:59:55;13.18;;;10.25;;
52964;SDS011;42923;53.220;6.528;2023-03-01T05:02:21;15.77;;;11.07;;
52964;SDS011;42923;53.220;6.528;2023-03-01T05:04:47;14.30;;;10.70;;
52964;SDS011;42923;53.220;6.528;2023-03-01T05:07:12;14.38;;;9.32;;
52964;SDS011;42923;53.220;6.528;2023-03-01T05:09:47;16.52;;;11.25;;
52964;SDS011;42923;53.220;6.528;2023-03-01T05:12:13;16.73;;;11.25;;
52964;SDS011;42923;53.220;6.528;2023-03-01T05:14:40;14.35;;;10.50;;
52964;SDS011;42923;53.220;6.528;2023-03-01T05:17:06;16.63;;;11.45;;
52964;SDS011;42923;53.220;6.528;2023-03-01T05:19:32;15.05;;;10.82;;
52964;SDS011;42923;53.220;6.528;2023-03-01T05:21:59;15.25;;;10.75;;
52964;SDS011;42923;53.220;6.528;2023-03-01T05:24:33;18.98;;;11.52;;
52964;SDS011;42923;53.220;6.528;2023-03-01T05:27:00;15.07;;;10.23;;
52964;SDS011;42923;53.220;6.528;2023-03-01T05:29:27;17.08;;;11.63;;
52964;SDS011;42923;53.220;6.528;2023-03-01T05:31:55;15.80;;;10.98;;
52964;SDS011;42923;53.220;6.528;2023-03-01T05:34:23;17.48;;;12.43;;
52964;SDS011;42923;53.220;6.528;2023-03-01T05:36:50;19.33;;;11.77;;
52964;SDS011;42923;53.220;6.528;2023-03-01T05:39:20;17.38;;;11.52;;
52964;SDS011;42923;53.220;6.528;2023-03-01T05:41:48;14.98;;;10.70;;
52964;SDS011;42923;53.220;6.528;2023-03-01T05:44:18;16.88;;;11.32;;
52964;SDS011;42923;53.220;6.528;2023-03-01T05:46:43;15.43;;;11.13;;
52964;SDS011;42923;53.220;6.528;2023-03-01T05:49:10;16.10;;;11.68;;
52964;SDS011;42923;53.220;6.528;2023-03-01T05:51:38;16.33;;;11.57;;
52964;SDS011;42923;53.220;6.528;2023-03-01T05:54:05;16.73;;;11.15;;
52964;SDS011;42923;53.220;6.528;2023-03-01T05:56:33;18.08;;;12.27;;
52964;SDS011;42923;53.220;6.528;2023-03-01T05:59:01;16.50;;;12.10;;
52964;SDS011;42923;53.220;6.528;2023-03-01T06:01:28;16.10;;;11.50;;
52964;SDS011;42923;53.220;6.528;2023-03-01T06:03:54;16.15;;;11.32;;
52964;SDS011;42923;53.220;6.528;2023-03-01T06:06:21;18.17;;;12.38;;
52964;SDS011;42923;53.220;6.528;2023-03-01T06:08:47;21.40;;;11.95;;
52964;SDS011;42923;53.220;6.528;2023-03-01T06:11:13;15.95;;;11.60;;
52964;SDS011;42923;53.220;6.528;2023-03-01T06:13:39;17.20;;;11.48;;
52964;SDS011;42923;53.220;6.528;2023-03-01T06:16:10;14.27;;;10.73;;
52964;SDS011;42923;53.220;6.528;2023-03-01T06:18:37;14.25;;;10.55;;
52964;SDS011;42923;53.220;6.528;2023-03-01T06:21:03;14.48;;;10.52;;
52964;SDS011;42923;53.220;6.528;2023-03-01T06:23:29;16.20;;;11.35;;
52964;SDS011;42923;53.220;6.528;2023-03-01T06:25:55;18.23;;;11.18;;
52964;SDS011;42923;53.220;6.528;2023-03-01T06:28:21;16.88;;;10.77;;
52964;SDS011;42923;53.220;6.528;2023-03-01T06:30:48;14.55;;;11.52;;
52964;SDS011;42923;53.220;6.528;2023-03-01T06:33:15;17.30;;;11.07;;
52964;SDS011;42923;53.220;6.528;2023-03-01T06:35:41;16.48;;;11.20;;
52964;SDS011;42923;53.220;6.528;2023-03-01T06:38:06;16.73;;;11.73;;
52964;SDS011;42923;53.220;6.528;2023-03-01T06:40:32;14.38;;;11.35;;
52964;SDS011;42923;53.220;6.528;2023-03-01T06:43:00;15.02;;;10.85;;
52964;SDS011;42923;53.220;6.528;2023-03-01T06:45:26;18.70;;;12.20;;
52964;SDS011;42923;53.220;6.528;2023-03-01T06:47:51;16.58;;;11.27;;
52964;SDS011;42923;53.220;6.528;2023-03-01T06:50:17;16.77;;;12.10;;
52964;SDS011;42923;53.220;6.528;2023-03-01T06:52:44;14.32;;;11.23;;
52964;SDS011;42923;53.220;6.528;2023-03-01T06:55:11;17.58;;;10.63;;
52964;SDS011;42923;53.220;6.528;2023-03-01T06:57:38;19.58;;;12.13;;
52964;SDS011;42923;53.220;6.528;2023-03-01T07:00:04;18.13;;;12.50;;
52964;SDS011;42923;53.220;6.528;2023-03-01T07:02:30;19.40;;;12.70;;
52964;SDS011;42923;53.220;6.528;2023-03-01T07:04:56;20.17;;;13.80;;
52964;SDS011;42923;53.220;6.528;2023-03-01T07:07:22;18.35;;;12.30;;
52964;SDS011;42923;53.220;6.528;2023-03-01T07:09:48;16.70;;;12.45;;
52964;SDS011;42923;53.220;6.528;2023-03-01T07:12:14;21.35;;;14.27;;
52964;SDS011;42923;53.220;6.528;2023-03-01T07:14:41;20.02;;;12.45;;
52964;SDS011;42923;53.220;6.528;2023-03-01T07:17:08;22.25;;;13.77;;
52964;SDS011;42923;53.220;6.528;2023-03-01T07:19:34;20.90;;;14.07;;
52964;SDS011;42923;53.220;6.528;2023-03-01T07:22:00;18.30;;;13.27;;
52964;SDS011;42923;53.220;6.528;2023-03-01T07:24:26;19.77;;;13.27;;
52964;SDS011;42923;53.220;6.528;2023-03-01T07:26:51;22.52;;;13.80;;
52964;SDS011;42923;53.220;6.528;2023-03-01T07:29:18;23.60;;;14.60;;
52964;SDS011;42923;53.220;6.528;2023-03-01T07:31:44;23.02;;;14.57;;
52964;SDS011;42923;53.220;6.528;2023-03-01T07:34:10;22.33;;;13.88;;
52964;SDS011;42923;53.220;6.528;2023-03-01T07:36:36;23.27;;;14.02;;
52964;SDS011;42923;53.220;6.528;2023-03-01T07:39:02;18.83;;;12.35;;
52964;SDS011;42923;53.220;6.528;2023-03-01T07:41:29;21.52;;;14.52;;
52964;SDS011;42923;53.220;6.528;2023-03-01T07:43:54;22.48;;;15.68;;
52964;SDS011;42923;53.220;6.528;2023-03-01T07:46:20;20.80;;;14.68;;
52964;SDS011;42923;53.220;6.528;2023-03-01T07:48:46;27.38;;;16.58;;
52964;SDS011;42923;53.220;6.528;2023-03-01T07:51:12;21.42;;;15.73;;
52964;SDS011;42923;53.220;6.528;2023-03-01T07:53:38;33.20;;;17.95;;
52964;SDS011;42923;53.220;6.528;2023-03-01T07:56:05;26.55;;;16.85;;
52964;SDS011;42923;53.220;6.528;2023-03-01T07:58:30;26.23;;;17.40;;
52964;SDS011;42923;53.220;6.528;2023-03-01T08:01:00;25.85;;;17.02;;
52964;SDS011;42923;53.220;6.528;2023-03-01T08:03:27;29.20;;;18.08;;
52964;SDS011;42923;53.220;6.528;2023-03-01T08:05:53;31.08;;;19.35;;
52964;SDS011;42923;53.220;6.528;2023-03-01T08:08:24;32.83;;;19.90;;
52964;SDS011;42923;53.220;6.528;2023-03-01T08:10:50;33.33;;;20.20;;
52964;SDS011;42923;53.220;6.528;2023-03-01T08:13:16;30.23;;;20.17;;
52964;SDS011;42923;53.220;6.528;2023-03-01T08:15:47;35.70;;;21.77;;
52964;SDS011;42923;53.220;6.528;2023-03-01T08:18:14;34.33;;;22.00;;
52964;SDS011;42923;53.220;6.528;2023-03-01T08:20:40;41.65;;;24.20;;
52964;SDS011;42923;53.220;6.528;2023-03-01T08:23:06;36.20;;;23.00;;
52964;SDS011;42923;53.220;6.528;2023-03-01T08:25:31;37.58;;;23.23;;
52964;SDS011;42923;53.220;6.528;2023-03-01T08:27:57;35.42;;;22.13;;
52964;SDS011;42923;53.220;6.528;2023-03-01T08:30:23;41.22;;;24.60;;
52964;SDS011;42923;53.220;6.528;2023-03-01T08:32:49;35.58;;;24.48;;
52964;SDS011;42923;53.220;6.528;2023-03-01T08:35:15;37.08;;;25.10;;
52964;SDS011;42923;53.220;6.528;2023-03-01T08:37:41;38.03;;;26.13;;
52964;SDS011;42923;53.220;6.528;2023-03-01T08:40:07;35.08;;;23.40;;
52964;SDS011;42923;53.220;6.528;2023-03-01T08:42:35;34.35;;;23.65;;
52964;SDS011;42923;53.220;6.528;2023-03-01T08:45:05;28.50;;;20.77;;
52964;SDS011;42923;53.220;6.528;2023-03-01T08:47:32;37.03;;;21.33;;
52964;SDS011;42923;53.220;6.528;2023-03-01T08:50:00;27.80;;;20.23;;
52964;SDS011;42923;53.220;6.528;2023-03-01T08:52:26;30.05;;;20.00;;
52964;SDS011;42923;53.220;6.528;2023-03-01T08:54:52;31.52;;;22.52;;
52964;SDS011;42923;53.220;6.528;2023-03-01T08:57:18;33.83;;;22.50;;
52964;SDS011;42923;53.220;6.528;2023-03-01T08:59:44;33.78;;;22.13;;
52964;SDS011;42923;53.220;6.528;2023-03-01T09:02:13;31.83;;;23.35;;
52964;SDS011;42923;53.220;6.528;2023-03-01T09:04:41;36.40;;;24.63;;
52964;SDS011;42923;53.220;6.528;2023-03-01T09:07:07;45.78;;;24.23;;
52964;SDS011;42923;53.220;6.528;2023-03-01T09:09:33;37.95;;;24.88;;
52964;SDS011;42923;53.220;6.528;2023-03-01T09:11:59;32.88;;;24.05;;
52964;SDS011;42923;53.220;6.528;2023-03-01T09:14:25;33.88;;;23.90;;
52964;SDS011;42923;53.220;6.528;2023-03-01T09:16:51;31.60;;;23.67;;
52964;SDS011;42923;53.220;6.528;2023-03-01T09:19:17;31.58;;;21.25;;
52964;SDS011;42923;53.220;6.528;2023-03-01T09:21:42;31.83;;;22.38;;
52964;SDS011;42923;53.220;6.528;2023-03-01T09:24:19;34.10;;;20.45;;
52964;SDS011;42923;53.220;6.528;2023-03-01T09:26:46;29.45;;;19.42;;
52964;SDS011;42923;53.220;6.528;2023-03-01T09:29:12;30.48;;;20.35;;
52964;SDS011;42923;53.220;6.528;2023-03-01T09:31:39;25.67;;;17.65;;
52964;SDS011;42923;53.220;6.528;2023-03-01T09:34:05;24.63;;;17.05;;
52964;SDS011;42923;53.220;6.528;2023-03-01T09:36:31;26.13;;;18.70;;
52964;SDS011;42923;53.220;6.528;2023-03-01T09:38:58;24.20;;;17.65;;
52964;SDS011;42923;53.220;6.528;2023-03-01T09:44:31;22.55;;;16.23;;
52964;SDS011;42923;53.220;6.528;2023-03-01T09:47:04;31.13;;;16.52;;
52964;SDS011;42923;53.220;6.528;2023-03-01T09:49:35;19.73;;;15.95;;
52964;SDS011;42923;53.220;6.528;2023-03-01T09:54:34;25.73;;;16.60;;
52964;SDS011;42923;53.220;6.528;2023-03-01T09:57:19;26.73;;;17.77;;
52964;SDS011;42923;53.220;6.528;2023-03-01T10:02:43;22.52;;;15.18;;
52964;SDS011;42923;53.220;6.528;2023-03-01T10:07:49;18.30;;;15.48;;
52964;SDS011;42923;53.220;6.528;2023-03-01T10:10:38;23.58;;;15.10;;
52964;SDS011;42923;53.220;6.528;2023-03-01T10:13:28;19.70;;;15.93;;
52964;SDS011;42923;53.220;6.528;2023-03-01T10:16:01;19.75;;;15.43;;
52964;SDS011;42923;53.220;6.528;2023-03-01T10:18:34;19.83;;;14.25;;
52964;SDS011;42923;53.220;6.528;2023-03-01T10:21:02;16.85;;;14.88;;
52964;SDS011;42923;53.220;6.528;2023-03-01T10:23:37;19.13;;;15.83;;
52964;SDS011;42923;53.220;6.528;2023-03-01T10:26:40;17.98;;;14.65;;
52964;SDS011;42923;53.220;6.528;2023-03-01T10:29:07;19.30;;;15.02;;
52964;SDS011;42923;53.220;6.528;2023-03-01T10:31:38;17.42;;;14.40;;
52964;SDS011;42923;53.220;6.528;2023-03-01T10:34:16;16.83;;;14.68;;
52964;SDS011;42923;53.220;6.528;2023-03-01T10:36:44;16.98;;;15.25;;
52964;SDS011;42923;53.220;6.528;2023-03-01T10:39:20;18.05;;;14.65;;
52964;SDS011;42923;53.220;6.528;2023-03-01T10:41:55;20.20;;;14.73;;
52964;SDS011;42923;53.220;6.528;2023-03-01T10:44:35;17.17;;;15.10;;
52964;SDS011;42923;53.220;6.528;2023-03-01T10:47:11;16.30;;;14.60;;
52964;SDS011;42923;53.220;6.528;2023-03-01T10:52:21;17.75;;;15.85;;
52964;SDS011;42923;53.220;6.528;2023-03-01T10:54:52;15.88;;;13.32;;
52964;SDS011;42923;53.220;6.528;2023-03-01T10:57:30;15.90;;;14.13;;
52964;SDS011;42923;53.220;6.528;2023-03-01T11:00:16;16.83;;;15.00;;
52964;SDS011;42923;53.220;6.528;2023-03-01T11:02:49;19.45;;;13.23;;
52964;SDS011;42923;53.220;6.528;2023-03-01T11:05:35;15.63;;;13.50;;
52964;SDS011;42923;53.220;6.528;2023-03-01T11:08:01;13.32;;;11.48;;
52964;SDS011;42923;53.220;6.528;2023-03-01T11:10:29;15.23;;;12.68;;
52964;SDS011;42923;53.220;6.528;2023-03-01T11:13:16;14.45;;;12.05;;
52964;SDS011;42923;53.220;6.528;2023-03-01T11:15:57;12.70;;;10.93;;
52964;SDS011;42923;53.220;6.528;2023-03-01T11:18:27;11.38;;;10.18;;
52964;SDS011;42923;53.220;6.528;2023-03-01T11:20:54;11.73;;;10.10;;
52964;SDS011;42923;53.220;6.528;2023-03-01T11:23:20;11.60;;;10.07;;
52964;SDS011;42923;53.220;6.528;2023-03-01T11:25:50;10.68;;;9.45;;
52964;SDS011;42923;53.220;6.528;2023-03-01T11:28:20;13.20;;;9.85;;
52964;SDS011;42923;53.220;6.528;2023-03-01T11:30:50;10.63;;;9.52;;
52964;SDS011;42923;53.220;6.528;2023-03-01T11:33:44;10.35;;;8.73;;
52964;SDS011;42923;53.220;6.528;2023-03-01T11:38:53;14.73;;;10.43;;
52964;SDS011;42923;53.220;6.528;2023-03-01T11:41:20;14.13;;;12.00;;
52964;SDS011;42923;53.220;6.528;2023-03-01T11:44:03;17.55;;;12.10;;
52964;SDS011;42923;53.220;6.528;2023-03-01T11:47:09;13.73;;;11.85;;
52964;SDS011;42923;53.220;6.528;2023-03-01T11:49:49;11.15;;;9.70;;
52964;SDS011;42923;53.220;6.528;2023-03-01T11:52:38;9.70;;;8.70;;
52964;SDS011;42923;53.220;6.528;2023-03-01T11:55:44;12.23;;;9.45;;
52964;SDS011;42923;53.220;6.528;2023-03-01T12:08:33;15.00;;;10.35;;
52964;SDS011;42923;53.220;6.528;2023-03-01T12:11:10;13.10;;;10.13;;
52964;SDS011;42923;53.220;6.528;2023-03-01T12:16:40;12.38;;;10.35;;
52964;SDS011;42923;53.220;6.528;2023-03-01T12:19:33;10.38;;;8.88;;
52964;SDS011;42923;53.220;6.528;2023-03-01T12:22:27;10.57;;;8.77;;
52964;SDS011;42923;53.220;6.528;2023-03-01T12:30:20;11.13;;;9.63;;
52964;SDS011;42923;53.220;6.528;2023-03-01T12:38:37;11.63;;;10.43;;
52964;SDS011;42923;53.220;6.528;2023-03-01T12:48:56;11.30;;;9.65;;
52964;SDS011;42923;53.220;6.528;2023-03-01T12:51:35;10.13;;;9.13;;
52964;SDS011;42923;53.220;6.528;2023-03-01T12:54:15;10.50;;;8.70;;
52964;SDS011;42923;53.220;6.528;2023-03-01T12:56:46;11.43;;;9.68;;
52964;SDS011;42923;53.220;6.528;2023-03-01T13:02:03;11.25;;;9.45;;
52964;SDS011;42923;53.220;6.528;2023-03-01T13:07:28;12.32;;;10.88;;
52964;SDS011;42923;53.220;6.528;2023-03-01T13:17:58;8.32;;;7.53;;
52964;SDS011;42923;53.220;6.528;2023-03-01T13:20:45;8.90;;;7.22;;
52964;SDS011;42923;53.220;6.528;2023-03-01T13:31:54;8.95;;;8.05;;
52964;SDS011;42923;53.220;6.528;2023-03-01T13:33:51;11.90;;;9.38;;
52964;SDS011;42923;53.220;6.528;2023-03-01T13:38:58;10.38;;;9.32;;
52964;SDS011;42923;53.220;6.528;2023-03-01T13:42:25;14.95;;;9.65;;
52964;SDS011;42923;53.220;6.528;2023-03-01T13:46:53;11.07;;;9.73;;
52964;SDS011;42923;53.220;6.528;2023-03-01T13:57:43;11.45;;;9.35;;
52964;SDS011;42923;53.220;6.528;2023-03-01T14:03:01;11.90;;;9.55;;
52964;SDS011;42923;53.220;6.528;2023-03-01T14:05:31;8.95;;;7.80;;
52964;SDS011;42923;53.220;6.528;2023-03-01T14:07:58;10.90;;;8.98;;
52964;SDS011;42923;53.220;6.528;2023-03-01T14:10:25;11.93;;;9.60;;
52964;SDS011;42923;53.220;6.528;2023-03-01T14:15:49;11.32;;;7.90;;
52964;SDS011;42923;53.220;6.528;2023-03-01T14:18:34;12.95;;;8.90;;
52964;SDS011;42923;53.220;6.528;2023-03-01T14:21:08;11.10;;;9.20;;
52964;SDS011;42923;53.220;6.528;2023-03-01T14:23:34;11.77;;;8.77;;
52964;SDS011;42923;53.220;6.528;2023-03-01T14:26:03;10.02;;;8.90;;
52964;SDS011;42923;53.220;6.528;2023-03-01T14:28:30;10.43;;;9.00;;
52964;SDS011;42923;53.220;6.528;2023-03-01T14:31:02;11.07;;;9.70;;
52964;SDS011;42923;53.220;6.528;2023-03-01T14:33:54;10.48;;;9.32;;
52964;SDS011;42923;53.220;6.528;2023-03-01T14:36:25;12.45;;;9.25;;
52964;SDS011;42923;53.220;6.528;2023-03-01T14:38:52;10.13;;;9.15;;
52964;SDS011;42923;53.220;6.528;2023-03-01T14:41:20;11.70;;;10.43;;
52964;SDS011;42923;53.220;6.528;2023-03-01T14:43:51;12.63;;;9.60;;
52964;SDS011;42923;53.220;6.528;2023-03-01T14:46:24;12.23;;;8.82;;
52964;SDS011;42923;53.220;6.528;2023-03-01T14:48:57;11.57;;;10.23;;
52964;SDS011;42923;53.220;6.528;2023-03-01T14:51:28;10.65;;;9.55;;
52964;SDS011;42923;53.220;6.528;2023-03-01T14:53:54;10.18;;;9.13;;
52964;SDS011;42923;53.220;6.528;2023-03-01T14:56:21;10.13;;;9.05;;
52964;SDS011;42923;53.220;6.528;2023-03-01T14:58:50;11.27;;;9.30;;
52964;SDS011;42923;53.220;6.528;2023-03-01T15:01:17;12.63;;;9.55;;
52964;SDS011;42923;53.220;6.528;2023-03-01T15:03:48;10.93;;;9.82;;
52964;SDS011;42923;53.220;6.528;2023-03-01T15:06:18;12.45;;;10.75;;
52964;SDS011;42923;53.220;6.528;2023-03-01T15:08:47;14.60;;;10.27;;
52964;SDS011;42923;53.220;6.528;2023-03-01T15:11:22;12.35;;;11.02;;
52964;SDS011;42923;53.220;6.528;2023-03-01T15:13:56;15.13;;;10.55;;
52964;SDS011;42923;53.220;6.528;2023-03-01T15:16:32;11.80;;;9.93;;
52964;SDS011;42923;53.220;6.528;2023-03-01T15:19:03;14.38;;;11.13;;
52964;SDS011;42923;53.220;6.528;2023-03-01T15:21:37;12.07;;;10.07;;
52964;SDS011;42923;53.220;6.528;2023-03-01T15:26:37;12.90;;;10.43;;
52964;SDS011;42923;53.220;6.528;2023-03-01T15:29:10;15.07;;;10.90;;
52964;SDS011;42923;53.220;6.528;2023-03-01T15:34:10;13.33;;;9.73;;
52964;SDS011;42923;53.220;6.528;2023-03-01T15:36:57;12.98;;;10.30;;
52964;SDS011;42923;53.220;6.528;2023-03-01T15:39:27;14.65;;;11.30;;
52964;SDS011;42923;53.220;6.528;2023-03-01T15:42:02;14.55;;;11.20;;
52964;SDS011;42923;53.220;6.528;2023-03-01T15:44:36;12.35;;;10.68;;
52964;SDS011;42923;53.220;6.528;2023-03-01T15:47:29;14.23;;;11.25;;
52964;SDS011;42923;53.220;6.528;2023-03-01T15:49:56;12.90;;;10.80;;
52964;SDS011;42923;53.220;6.528;2023-03-01T15:52:27;13.55;;;9.65;;
52964;SDS011;42923;53.220;6.528;2023-03-01T15:55:02;13.80;;;10.48;;
52964;SDS011;42923;53.220;6.528;2023-03-01T15:57:30;12.57;;;10.32;;
52964;SDS011;42923;53.220;6.528;2023-03-01T15:59:56;12.65;;;9.25;;
52964;SDS011;42923;53.220;6.528;2023-03-01T16:02:22;14.40;;;11.23;;
52964;SDS011;42923;53.220;6.528;2023-03-01T16:04:49;14.38;;;10.18;;
52964;SDS011;42923;53.220;6.528;2023-03-01T16:07:15;19.05;;;11.23;;
52964;SDS011;42923;53.220;6.528;2023-03-01T16:09:41;13.73;;;9.85;;
52964;SDS011;42923;53.220;6.528;2023-03-01T16:12:15;13.88;;;10.00;;
52964;SDS011;42923;53.220;6.528;2023-03-01T16:14:41;17.05;;;10.32;;
52964;SDS011;42923;53.220;6.528;2023-03-01T16:17:07;13.15;;;10.90;;
52964;SDS011;42923;53.220;6.528;2023-03-01T16:19:35;15.18;;;11.38;;
52964;SDS011;42923;53.220;6.528;2023-03-01T16:22:02;14.00;;;12.02;;
52964;SDS011;42923;53.220;6.528;2023-03-01T16:24:28;14.73;;;11.80;;
52964;SDS011;42923;53.220;6.528;2023-03-01T16:26:54;16.63;;;12.18;;